Terminal Aerodrome Forecast
Issued by NWS Dodge City, KS

Home | Current Version | Previous Version | Graphics & Text | Print | Product List | Glossary Off
Versions: 1 2 3 4 5 6 7 8 9 10 11 12 13 14 15 16 17 18 19 20 21 22 23 24 25 26 27 28 29

000
FTUS43 KDDC 271501 AAB
TAFDDC
TAF AMD
KDDC 271501Z 2715/2812 28015KT P6SM OVC010
     FM271630 29014KT P6SM FEW010 SCT110
     FM272100 18012KT P6SM VCTS SCT200CB
     FM280300 24007KT P6SM SCT250=

USA.gov is the U.S. government's official web portal to all federal, state and local government web resources and services.